sensor_id;sensor_type;location;lat;lon;timestamp;pressure;altitude;pressure_sealevel;temperature;humidity
32243;BME280;18731;42.830;24.390;2022-11-18T03:00:57;93462.59;;;6.24;83.42
32243;BME280;18731;42.830;24.390;2022-11-18T03:06:08;93473.97;;;6.24;84.80
32243;BME280;18731;42.830;24.390;2022-11-18T03:08:48;93478.63;;;6.27;86.02
32243;BME280;18731;42.830;24.390;2022-11-18T03:11:22;93469.69;;;6.32;85.97
32243;BME280;18731;42.830;24.390;2022-11-18T03:16:19;93468.47;;;6.29;85.39
32243;BME280;18731;42.830;24.390;2022-11-18T03:19:06;93469.81;;;6.35;85.32
32243;BME280;18731;42.830;24.390;2022-11-18T03:21:38;93471.13;;;6.29;83.80
32243;BME280;18731;42.830;24.390;2022-11-18T03:24:20;93475.13;;;6.35;84.36
32243;BME280;18731;42.830;24.390;2022-11-18T03:26:53;93467.81;;;6.32;83.57
32243;BME280;18731;42.830;24.390;2022-11-18T03:29:25;93480.38;;;6.23;82.77
32243;BME280;18731;42.830;24.390;2022-11-18T03:31:58;93475.63;;;6.29;83.27
32243;BME280;18731;42.830;24.390;2022-11-18T03:34:29;93475.00;;;6.32;83.90
32243;BME280;18731;42.830;24.390;2022-11-18T03:36:59;93481.47;;;6.22;83.65
32243;BME280;18731;42.830;24.390;2022-11-18T03:39:28;93473.72;;;6.17;83.80
32243;BME280;18731;42.830;24.390;2022-11-18T03:42:03;93461.19;;;6.05;84.00
32243;BME280;18731;42.830;24.390;2022-11-18T03:44:35;93480.88;;;6.17;84.63
32243;BME280;18731;42.830;24.390;2022-11-18T03:47:09;93488.75;;;6.25;84.02
32243;BME280;18731;42.830;24.390;2022-11-18T03:53:00;93491.41;;;6.25;84.11
32243;BME280;18731;42.830;24.390;2022-11-18T03:55:29;93483.66;;;6.20;83.20
32243;BME280;18731;42.830;24.390;2022-11-18T04:00:53;93493.59;;;6.23;83.18
32243;BME280;18731;42.830;24.390;2022-11-18T04:03:21;93486.63;;;5.98;82.80
32243;BME280;18731;42.830;24.390;2022-11-18T04:05:53;93484.91;;;6.02;83.63
32243;BME280;18731;42.830;24.390;2022-11-18T04:08:23;93482.25;;;6.02;84.42
32243;BME280;18731;42.830;24.390;2022-11-18T04:13:34;93482.88;;;5.99;86.47
32243;BME280;18731;42.830;24.390;2022-11-18T04:16:02;93478.03;;;6.01;85.91
32243;BME280;18731;42.830;24.390;2022-11-18T04:18:28;93480.97;;;5.78;85.05
32243;BME280;18731;42.830;24.390;2022-11-18T04:20:54;93477.78;;;5.94;86.07
32243;BME280;18731;42.830;24.390;2022-11-18T04:23:19;93484.63;;;5.95;86.27
32243;BME280;18731;42.830;24.390;2022-11-18T04:25:45;93486.84;;;5.84;85.36
32243;BME280;18731;42.830;24.390;2022-11-18T04:28:10;93484.19;;;5.93;86.77
32243;BME280;18731;42.830;24.390;2022-11-18T04:30:36;93478.47;;;5.82;85.38
32243;BME280;18731;42.830;24.390;2022-11-18T04:33:02;93471.16;;;5.79;85.09
32243;BME280;18731;42.830;24.390;2022-11-18T04:35:28;93478.88;;;5.93;85.04
32243;BME280;18731;42.830;24.390;2022-11-18T04:37:53;93484.66;;;5.86;84.78
32243;BME280;18731;42.830;24.390;2022-11-18T04:40:19;93483.88;;;5.86;85.08
32243;BME280;18731;42.830;24.390;2022-11-18T04:42:45;93472.66;;;5.89;84.69
32243;BME280;18731;42.830;24.390;2022-11-18T04:45:11;93477.94;;;5.89;84.49
32243;BME280;18731;42.830;24.390;2022-11-18T04:47:37;93480.88;;;5.96;84.52
32243;BME280;18731;42.830;24.390;2022-11-18T04:50:03;93481.69;;;5.88;84.29
32243;BME280;18731;42.830;24.390;2022-11-18T04:52:29;93477.00;;;5.93;83.62
32243;BME280;18731;42.830;24.390;2022-11-18T04:54:54;93476.09;;;5.89;85.72
32243;BME280;18731;42.830;24.390;2022-11-18T04:57:20;93479.03;;;5.88;85.05
32243;BME280;18731;42.830;24.390;2022-11-18T04:59:46;93474.31;;;5.72;84.56
32243;BME280;18731;42.830;24.390;2022-11-18T05:02:12;93484.53;;;5.82;84.47
32243;BME280;18731;42.830;24.390;2022-11-18T05:04:38;93476.91;;;5.81;83.38
32243;BME280;18731;42.830;24.390;2022-11-18T05:07:04;93480.78;;;5.84;83.80
32243;BME280;18731;42.830;24.390;2022-11-18T05:09:32;93485.44;;;5.87;84.04
32243;BME280;18731;42.830;24.390;2022-11-18T05:11:58;93472.19;;;5.87;84.60
32243;BME280;18731;42.830;24.390;2022-11-18T05:14:42;93489.06;;;5.82;82.58
32243;BME280;18731;42.830;24.390;2022-11-18T05:17:09;93500.56;;;5.86;82.66
32243;BME280;18731;42.830;24.390;2022-11-18T05:19:38;93489.69;;;5.79;82.72
32243;BME280;18731;42.830;24.390;2022-11-18T05:22:05;93494.66;;;5.80;84.18
32243;BME280;18731;42.830;24.390;2022-11-18T05:24:31;93484.28;;;5.75;84.54
32243;BME280;18731;42.830;24.390;2022-11-18T05:26:57;93482.00;;;5.65;83.95
32243;BME280;18731;42.830;24.390;2022-11-18T05:29:23;93494.84;;;5.75;83.93
32243;BME280;18731;42.830;24.390;2022-11-18T05:31:49;93484.19;;;5.63;83.95
32243;BME280;18731;42.830;24.390;2022-11-18T05:34:15;93497.97;;;5.77;83.55
32243;BME280;18731;42.830;24.390;2022-11-18T05:36:41;93491.69;;;5.82;83.33
32243;BME280;18731;42.830;24.390;2022-11-18T05:39:07;93491.25;;;5.80;85.17
32243;BME280;18731;42.830;24.390;2022-11-18T05:41:33;93482.06;;;5.77;84.79
32243;BME280;18731;42.830;24.390;2022-11-18T05:44:17;93468.38;;;5.75;84.84
32243;BME280;18731;42.830;24.390;2022-11-18T05:46:43;93477.69;;;5.81;84.33
32243;BME280;18731;42.830;24.390;2022-11-18T05:49:09;93493.25;;;5.83;83.61
32243;BME280;18731;42.830;24.390;2022-11-18T05:51:34;93485.81;;;5.76;86.26
32243;BME280;18731;42.830;24.390;2022-11-18T05:54:03;93494.66;;;5.80;84.84
32243;BME280;18731;42.830;24.390;2022-11-18T05:56:40;93497.31;;;5.80;84.34
32243;BME280;18731;42.830;24.390;2022-11-18T05:59:06;93501.72;;;5.76;84.42
32243;BME280;18731;42.830;24.390;2022-11-18T06:01:38;93503.53;;;5.85;84.44
32243;BME280;18731;42.830;24.390;2022-11-18T06:04:33;93484.28;;;5.75;84.37
32243;BME280;18731;42.830;24.390;2022-11-18T06:07:02;93495.91;;;5.83;85.03
32243;BME280;18731;42.830;24.390;2022-11-18T06:09:31;93505.50;;;5.96;85.05
32243;BME280;18731;42.830;24.390;2022-11-18T06:12:01;93504.44;;;5.89;84.38
32243;BME280;18731;42.830;24.390;2022-11-18T06:17:03;93497.56;;;5.96;87.35
32243;BME280;18731;42.830;24.390;2022-11-18T06:19:30;93498.13;;;6.02;86.37
32243;BME280;18731;42.830;24.390;2022-11-18T06:21:57;93496.78;;;6.17;85.85
32243;BME280;18731;42.830;24.390;2022-11-18T06:24:23;93503.44;;;6.23;86.04
32243;BME280;18731;42.830;24.390;2022-11-18T06:26:50;93498.91;;;6.23;86.29
32243;BME280;18731;42.830;24.390;2022-11-18T06:29:17;93493.41;;;6.28;86.83
32243;BME280;18731;42.830;24.390;2022-11-18T06:31:44;93501.16;;;6.33;86.05
32243;BME280;18731;42.830;24.390;2022-11-18T06:34:10;93498.00;;;6.40;86.75
32243;BME280;18731;42.830;24.390;2022-11-18T06:36:35;93492.38;;;6.41;87.93
32243;BME280;18731;42.830;24.390;2022-11-18T06:39:03;93504.56;;;6.55;86.22
32243;BME280;18731;42.830;24.390;2022-11-18T06:41:30;93509.91;;;6.67;85.98
32243;BME280;18731;42.830;24.390;2022-11-18T06:43:55;93491.25;;;6.75;86.48
32243;BME280;18731;42.830;24.390;2022-11-18T06:46:21;93508.00;;;7.00;86.88
32243;BME280;18731;42.830;24.390;2022-11-18T06:49:05;93501.75;;;7.29;88.24
32243;BME280;18731;42.830;24.390;2022-11-18T06:51:30;93515.69;;;7.63;87.65
32243;BME280;18731;42.830;24.390;2022-11-18T06:53:56;93508.28;;;7.93;85.29
32243;BME280;18731;42.830;24.390;2022-11-18T06:56:22;93495.66;;;8.02;83.79
32243;BME280;18731;42.830;24.390;2022-11-18T06:58:52;93506.63;;;8.00;81.23
32243;BME280;18731;42.830;24.390;2022-11-18T07:01:24;93512.00;;;8.16;82.47
32243;BME280;18731;42.830;24.390;2022-11-18T07:03:51;93510.66;;;8.34;82.19
32243;BME280;18731;42.830;24.390;2022-11-18T07:06:20;93511.59;;;8.54;81.32
32243;BME280;18731;42.830;24.390;2022-11-18T07:08:47;93510.91;;;8.57;79.69
32243;BME280;18731;42.830;24.390;2022-11-18T07:11:16;93504.44;;;8.43;80.03
32243;BME280;18731;42.830;24.390;2022-11-18T07:13:43;93501.06;;;8.58;81.17
32243;BME280;18731;42.830;24.390;2022-11-18T07:16:11;93486.44;;;8.52;79.67
32243;BME280;18731;42.830;24.390;2022-11-18T07:18:38;93505.03;;;8.64;79.33
32243;BME280;18731;42.830;24.390;2022-11-18T07:21:11;93448.97;;;8.29;80.15
32243;BME280;18731;42.830;24.390;2022-11-18T07:23:38;93510.53;;;8.71;80.18
32243;BME280;18731;42.830;24.390;2022-11-18T07:26:04;93497.25;;;8.87;80.89
32243;BME280;18731;42.830;24.390;2022-11-18T07:28:30;93496.34;;;9.11;80.35
32243;BME280;18731;42.830;24.390;2022-11-18T07:31:06;93497.31;;;9.65;79.19
32243;BME280;18731;42.830;24.390;2022-11-18T07:33:33;93494.53;;;10.28;79.34
32243;BME280;18731;42.830;24.390;2022-11-18T07:36:12;93494.97;;;10.88;77.28
32243;BME280;18731;42.830;24.390;2022-11-18T07:38:39;93455.47;;;11.20;74.99
32243;BME280;18731;42.830;24.390;2022-11-18T07:41:16;93485.50;;;12.09;72.33
32243;BME280;18731;42.830;24.390;2022-11-18T07:43:43;93480.34;;;12.53;69.77
32243;BME280;18731;42.830;24.390;2022-11-18T07:48:34;93476.47;;;13.55;66.97
32243;BME280;18731;42.830;24.390;2022-11-18T07:51:00;93422.22;;;13.72;64.62
32243;BME280;18731;42.830;24.390;2022-11-18T07:53:29;93458.31;;;14.47;63.92
32243;BME280;18731;42.830;24.390;2022-11-18T07:55:55;93450.38;;;14.75;61.96
32243;BME280;18731;42.830;24.390;2022-11-18T07:58:20;93451.59;;;15.10;61.21
32243;BME280;18731;42.830;24.390;2022-11-18T08:00:46;93451.63;;;15.28;60.44
32243;BME280;18731;42.830;24.390;2022-11-18T08:03:12;93443.97;;;15.44;60.49
32243;BME280;18731;42.830;24.390;2022-11-18T08:05:37;93445.13;;;15.54;58.64
32243;BME280;18731;42.830;24.390;2022-11-18T08:08:03;93450.94;;;15.77;58.98
32243;BME280;18731;42.830;24.390;2022-11-18T08:10:29;93451.25;;;16.25;60.26
32243;BME280;18731;42.830;24.390;2022-11-18T08:12:55;93443.84;;;16.61;56.89
32243;BME280;18731;42.830;24.390;2022-11-18T08:15:21;93439.22;;;16.73;56.03
32243;BME280;18731;42.830;24.390;2022-11-18T08:17:47;93427.69;;;16.61;56.41
32243;BME280;18731;42.830;24.390;2022-11-18T08:20:12;93441.88;;;16.80;56.05
32243;BME280;18731;42.830;24.390;2022-11-18T08:22:39;93430.94;;;17.08;54.06
32243;BME280;18731;42.830;24.390;2022-11-18T08:25:05;93417.91;;;16.96;55.52
32243;BME280;18731;42.830;24.390;2022-11-18T08:27:31;93418.56;;;17.18;54.79
32243;BME280;18731;42.830;24.390;2022-11-18T08:29:57;93405.31;;;17.38;55.44
32243;BME280;18731;42.830;24.390;2022-11-18T08:32:23;93409.69;;;17.73;54.16
32243;BME280;18731;42.830;24.390;2022-11-18T08:34:49;93408.88;;;17.79;54.98
32243;BME280;18731;42.830;24.390;2022-11-18T08:37:15;93408.09;;;17.79;52.63
32243;BME280;18731;42.830;24.390;2022-11-18T08:39:41;93401.31;;;18.05;52.72
32243;BME280;18731;42.830;24.390;2022-11-18T08:42:08;93398.63;;;18.42;51.98
32243;BME280;18731;42.830;24.390;2022-11-18T08:44:34;93396.19;;;18.51;50.99
32243;BME280;18731;42.830;24.390;2022-11-18T08:47:00;93391.88;;;18.57;50.15
32243;BME280;18731;42.830;24.390;2022-11-18T08:49:26;93377.50;;;18.68;49.98
32243;BME280;18731;42.830;24.390;2022-11-18T08:51:51;93381.31;;;18.70;49.82
32243;BME280;18731;42.830;24.390;2022-11-18T08:54:17;93370.81;;;18.76;49.01
32243;BME280;18731;42.830;24.390;2022-11-18T08:56:43;93364.94;;;18.50;49.54
32243;BME280;18731;42.830;24.390;2022-11-18T08:59:09;93363.69;;;18.89;49.85
32243;BME280;18731;42.830;24.390;2022-11-18T09:01:36;93356.25;;;19.23;49.21
32243;BME280;18731;42.830;24.390;2022-11-18T09:04:02;93354.31;;;19.47;48.33
32243;BME280;18731;42.830;24.390;2022-11-18T09:06:28;93335.03;;;19.45;48.30
32243;BME280;18731;42.830;24.390;2022-11-18T09:08:54;93347.59;;;19.59;47.12
32243;BME280;18731;42.830;24.390;2022-11-18T09:11:22;93339.88;;;19.81;47.13
32243;BME280;18731;42.830;24.390;2022-11-18T09:13:53;93338.97;;;19.87;45.66
32243;BME280;18731;42.830;24.390;2022-11-18T09:16:19;93331.41;;;19.99;45.89
32243;BME280;18731;42.830;24.390;2022-11-18T09:18:44;93322.25;;;19.92;47.24
32243;BME280;18731;42.830;24.390;2022-11-18T09:21:10;93338.72;;;20.21;45.35
32243;BME280;18731;42.830;24.390;2022-11-18T09:23:36;93348.00;;;20.01;45.81
32243;BME280;18731;42.830;24.390;2022-11-18T09:26:11;93325.72;;;20.33;45.12
32243;BME280;18731;42.830;24.390;2022-11-18T09:28:37;93334.78;;;20.46;44.22
32243;BME280;18731;42.830;24.390;2022-11-18T09:31:10;93331.00;;;20.20;44.15
32243;BME280;18731;42.830;24.390;2022-11-18T09:33:36;93319.63;;;20.09;45.73
32243;BME280;18731;42.830;24.390;2022-11-18T09:36:03;93317.47;;;20.20;44.18
32243;BME280;18731;42.830;24.390;2022-11-18T09:38:30;93313.88;;;20.46;43.59
32243;BME280;18731;42.830;24.390;2022-11-18T09:49:33;93265.19;;;21.11;44.88
32243;BME280;18731;42.830;24.390;2022-11-18T09:52:27;93257.84;;;20.76;45.05
32243;BME280;18731;42.830;24.390;2022-11-18T09:54:53;93235.63;;;20.48;42.97
32243;BME280;18731;42.830;24.390;2022-11-18T09:57:35;93236.69;;;21.19;45.53
32243;BME280;18731;42.830;24.390;2022-11-18T10:00:12;93230.59;;;21.48;40.66
32243;BME280;18731;42.830;24.390;2022-11-18T10:05:18;93218.75;;;21.71;38.29
32243;BME280;18731;42.830;24.390;2022-11-18T10:08:13;93225.59;;;21.75;38.88
32243;BME280;18731;42.830;24.390;2022-11-18T10:21:56;93208.34;;;20.19;42.07
32243;BME280;18731;42.830;24.390;2022-11-18T10:24:29;93203.03;;;19.76;43.53
32243;BME280;18731;42.830;24.390;2022-11-18T10:26:58;93206.16;;;19.32;43.66
32243;BME280;18731;42.830;24.390;2022-11-18T10:29:24;93206.78;;;18.96;45.28
32243;BME280;18731;42.830;24.390;2022-11-18T10:32:06;93207.28;;;18.64;46.54
32243;BME280;18731;42.830;24.390;2022-11-18T10:34:34;93209.16;;;18.40;47.24
32243;BME280;18731;42.830;24.390;2022-11-18T10:37:28;93205.38;;;18.04;47.82
32243;BME280;18731;42.830;24.390;2022-11-18T10:39:56;93229.09;;;17.89;48.58
32243;BME280;18731;42.830;24.390;2022-11-18T10:42:29;93222.22;;;17.84;48.96
32243;BME280;18731;42.830;24.390;2022-11-18T10:50:44;93224.44;;;17.55;49.51
32243;BME280;18731;42.830;24.390;2022-11-18T10:53:32;93220.22;;;17.54;48.89
32243;BME280;18731;42.830;24.390;2022-11-18T10:56:06;93220.63;;;17.53;49.45
32243;BME280;18731;42.830;24.390;2022-11-18T10:58:40;93211.78;;;17.49;49.62
32243;BME280;18731;42.830;24.390;2022-11-18T11:01:18;93223.38;;;17.46;49.81
32243;BME280;18731;42.830;24.390;2022-11-18T11:04:05;93218.34;;;17.48;50.53
32243;BME280;18731;42.830;24.390;2022-11-18T11:06:37;93213.41;;;17.43;50.61
32243;BME280;18731;42.830;24.390;2022-11-18T11:14:31;93194.75;;;18.20;49.23
32243;BME280;18731;42.830;24.390;2022-11-18T11:17:04;93200.44;;;18.83;47.38
32243;BME280;18731;42.830;24.390;2022-11-18T11:19:50;93196.50;;;19.54;45.90
32243;BME280;18731;42.830;24.390;2022-11-18T11:22:16;93190.31;;;19.93;45.22
32243;BME280;18731;42.830;24.390;2022-11-18T11:24:43;93193.94;;;20.42;44.80
32243;BME280;18731;42.830;24.390;2022-11-18T11:32:31;93192.63;;;21.90;39.03
32243;BME280;18731;42.830;24.390;2022-11-18T11:37:45;93195.06;;;21.71;38.37
32243;BME280;18731;42.830;24.390;2022-11-18T11:50:53;93170.47;;;21.17;38.32
32243;BME280;18731;42.830;24.390;2022-11-18T12:01:56;93133.38;;;24.92;31.99
32243;BME280;18731;42.830;24.390;2022-11-18T12:04:51;93141.81;;;25.43;32.92
32243;BME280;18731;42.830;24.390;2022-11-18T12:07:24;93127.16;;;26.28;30.55
32243;BME280;18731;42.830;24.390;2022-11-18T12:15:41;93128.59;;;27.38;29.40
32243;BME280;18731;42.830;24.390;2022-11-18T12:18:28;93110.31;;;28.76;28.48
32243;BME280;18731;42.830;24.390;2022-11-18T12:20:57;93119.31;;;29.32;27.60
32243;BME280;18731;42.830;24.390;2022-11-18T12:23:26;93107.78;;;30.21;25.33
32243;BME280;18731;42.830;24.390;2022-11-18T12:28:30;93105.44;;;30.08;25.76
32243;BME280;18731;42.830;24.390;2022-11-18T12:33:48;93095.41;;;28.18;26.34
32243;BME280;18731;42.830;24.390;2022-11-18T12:36:31;93099.56;;;25.99;28.97
32243;BME280;18731;42.830;24.390;2022-11-18T12:44:28;93085.97;;;23.22;34.65
32243;BME280;18731;42.830;24.390;2022-11-18T12:47:01;93089.66;;;22.33;35.23
32243;BME280;18731;42.830;24.390;2022-11-18T12:51:59;93095.28;;;21.17;38.10
32243;BME280;18731;42.830;24.390;2022-11-18T12:54:47;93078.81;;;20.79;38.52
32243;BME280;18731;42.830;24.390;2022-11-18T12:59:41;93087.88;;;20.24;40.05
32243;BME280;18731;42.830;24.390;2022-11-18T13:04:36;93081.88;;;19.64;40.71
32243;BME280;18731;42.830;24.390;2022-11-18T13:07:04;93080.19;;;19.31;41.75
32243;BME280;18731;42.830;24.390;2022-11-18T13:09:52;93086.28;;;18.95;41.41
32243;BME280;18731;42.830;24.390;2022-11-18T13:12:18;93083.38;;;18.86;41.99
32243;BME280;18731;42.830;24.390;2022-11-18T13:14:44;93082.72;;;18.78;42.26
32243;BME280;18731;42.830;24.390;2022-11-18T13:20:24;93088.00;;;18.12;47.28
32243;BME280;18731;42.830;24.390;2022-11-18T13:25:46;93076.94;;;17.79;51.24
32243;BME280;18731;42.830;24.390;2022-11-18T13:28:30;93080.56;;;17.65;48.24
32243;BME280;18731;42.830;24.390;2022-11-18T13:33:43;93077.31;;;17.47;50.10
32243;BME280;18731;42.830;24.390;2022-11-18T13:38:59;93086.91;;;17.21;52.07
32243;BME280;18731;42.830;24.390;2022-11-18T13:41:28;93078.56;;;17.09;52.41
32243;BME280;18731;42.830;24.390;2022-11-18T13:46:42;93078.38;;;16.51;53.32
32243;BME280;18731;42.830;24.390;2022-11-18T13:49:15;93065.84;;;16.30;53.97
32243;BME280;18731;42.830;24.390;2022-11-18T13:51:41;93073.59;;;16.25;52.07
32243;BME280;18731;42.830;24.390;2022-11-18T13:54:21;93077.25;;;16.00;54.28
32243;BME280;18731;42.830;24.390;2022-11-18T13:56:49;93070.81;;;15.87;56.48
32243;BME280;18731;42.830;24.390;2022-11-18T13:59:21;93080.88;;;15.76;55.52
32243;BME280;18731;42.830;24.390;2022-11-18T14:01:55;93047.09;;;15.71;55.55
32243;BME280;18731;42.830;24.390;2022-11-18T14:04:26;93067.25;;;15.31;54.80
32243;BME280;18731;42.830;24.390;2022-11-18T14:06:52;93067.97;;;15.39;54.42
32243;BME280;18731;42.830;24.390;2022-11-18T14:09:52;93049.13;;;15.42;58.11
32243;BME280;18731;42.830;24.390;2022-11-18T14:14:43;93068.34;;;15.41;58.23
32243;BME280;18731;42.830;24.390;2022-11-18T14:17:26;93084.91;;;15.32;58.58
32243;BME280;18731;42.830;24.390;2022-11-18T14:19:56;93098.72;;;15.31;59.86
32243;BME280;18731;42.830;24.390;2022-11-18T14:22:27;93078.88;;;15.07;58.28
32243;BME280;18731;42.830;24.390;2022-11-18T14:25:01;93080.03;;;14.99;56.38
32243;BME280;18731;42.830;24.390;2022-11-18T14:29:53;93076.16;;;15.14;58.14
32243;BME280;18731;42.830;24.390;2022-11-18T14:32:19;93071.97;;;15.06;58.59
32243;BME280;18731;42.830;24.390;2022-11-18T14:34:58;93081.19;;;15.05;59.44
32243;BME280;18731;42.830;24.390;2022-11-18T14:37:25;93080.44;;;14.94;60.13
32243;BME280;18731;42.830;24.390;2022-11-18T14:39:56;93068.97;;;14.79;60.58
32243;BME280;18731;42.830;24.390;2022-11-18T14:42:23;93060.94;;;14.68;60.48
32243;BME280;18731;42.830;24.390;2022-11-18T14:44:49;93073.22;;;14.66;60.09
32243;BME280;18731;42.830;24.390;2022-11-18T14:47:22;93063.66;;;14.54;61.56
32243;BME280;18731;42.830;24.390;2022-11-18T14:49:49;93073.63;;;14.39;61.92
32243;BME280;18731;42.830;24.390;2022-11-18T14:52:15;93075.19;;;14.30;62.53
32243;BME280;18731;42.830;24.390;2022-11-18T14:54:40;93071.34;;;14.16;62.84
32243;BME280;18731;42.830;24.390;2022-11-18T14:57:13;93069.44;;;14.06;62.63
32243;BME280;18731;42.830;24.390;2022-11-18T14:59:40;93071.34;;;13.88;63.88
32243;BME280;18731;42.830;24.390;2022-11-18T15:02:12;93045.28;;;13.53;64.19
32243;BME280;18731;42.830;24.390;2022-11-18T15:04:38;93053.31;;;13.53;64.29
32243;BME280;18731;42.830;24.390;2022-11-18T15:07:05;93056.75;;;13.54;64.42
32243;BME280;18731;42.830;24.390;2022-11-18T15:09:31;93053.69;;;13.44;64.30
32243;BME280;18731;42.830;24.390;2022-11-18T15:11:56;93046.41;;;13.45;65.19
32243;BME280;18731;42.830;24.390;2022-11-18T15:14:22;93052.91;;;13.40;64.94
32243;BME280;18731;42.830;24.390;2022-11-18T15:16:48;93043.34;;;13.39;64.40
32243;BME280;18731;42.830;24.390;2022-11-18T15:19:14;93049.47;;;13.47;65.47
32243;BME280;18731;42.830;24.390;2022-11-18T15:21:40;93050.63;;;13.49;64.78
32243;BME280;18731;42.830;24.390;2022-11-18T15:24:06;93034.53;;;13.42;65.04
32243;BME280;18731;42.830;24.390;2022-11-18T15:26:38;93052.19;;;13.58;64.29
32243;BME280;18731;42.830;24.390;2022-11-18T15:29:04;93056.75;;;13.46;65.63
32243;BME280;18731;42.830;24.390;2022-11-18T15:31:30;93072.81;;;13.39;65.96
32243;BME280;18731;42.830;24.390;2022-11-18T15:33:56;93030.97;;;13.03;67.57
32243;BME280;18731;42.830;24.390;2022-11-18T15:36:23;93070.50;;;13.27;67.29
32243;BME280;18731;42.830;24.390;2022-11-18T15:38:50;93061.28;;;13.25;67.63
32243;BME280;18731;42.830;24.390;2022-11-18T15:41:18;93055.84;;;13.07;66.72
32243;BME280;18731;42.830;24.390;2022-11-18T15:43:47;93067.44;;;13.32;68.41
32243;BME280;18731;42.830;24.390;2022-11-18T15:46:13;93072.00;;;13.25;68.89
32243;BME280;18731;42.830;24.390;2022-11-18T15:48:39;93072.00;;;13.21;69.67
32243;BME280;18731;42.830;24.390;2022-11-18T15:51:06;93073.47;;;13.11;68.40
32243;BME280;18731;42.830;24.390;2022-11-18T15:53:32;93078.88;;;13.18;67.14
32243;BME280;18731;42.830;24.390;2022-11-18T15:58:43;93052.81;;;13.12;68.41
32243;BME280;18731;42.830;24.390;2022-11-18T16:01:08;93067.41;;;13.25;66.80
32243;BME280;18731;42.830;24.390;2022-11-18T16:03:34;93064.31;;;13.16;68.85
32243;BME280;18731;42.830;24.390;2022-11-18T16:06:00;93069.31;;;13.21;69.01
32243;BME280;18731;42.830;24.390;2022-11-18T16:08:25;93076.59;;;13.24;68.10
32243;BME280;18731;42.830;24.390;2022-11-18T16:10:55;93072.78;;;13.32;66.61
32243;BME280;18731;42.830;24.390;2022-11-18T16:13:40;93069.75;;;13.37;66.73
32243;BME280;18731;42.830;24.390;2022-11-18T16:16:06;93062.13;;;13.46;64.76
32243;BME280;18731;42.830;24.390;2022-11-18T16:18:32;93054.44;;;13.45;66.63
32243;BME280;18731;42.830;24.390;2022-11-18T16:20:58;93060.97;;;13.44;67.46
32243;BME280;18731;42.830;24.390;2022-11-18T16:23:25;93057.13;;;13.45;67.94
32243;BME280;18731;42.830;24.390;2022-11-18T16:25:52;93075.84;;;13.27;68.00
32243;BME280;18731;42.830;24.390;2022-11-18T16:28:18;93077.03;;;13.47;66.78
32243;BME280;18731;42.830;24.390;2022-11-18T16:30:48;93076.66;;;13.45;68.12
32243;BME280;18731;42.830;24.390;2022-11-18T16:33:32;93069.38;;;13.42;68.42
32243;BME280;18731;42.830;24.390;2022-11-18T16:35:57;93036.44;;;13.35;68.55
32243;BME280;18731;42.830;24.390;2022-11-18T16:38:23;93033.34;;;13.26;66.27
32243;BME280;18731;42.830;24.390;2022-11-18T16:40:55;93048.31;;;13.34;65.84
32243;BME280;18731;42.830;24.390;2022-11-18T16:43:22;93034.53;;;13.35;64.66
32243;BME280;18731;42.830;24.390;2022-11-18T16:45:51;93012.69;;;13.33;67.90
32243;BME280;18731;42.830;24.390;2022-11-18T16:48:18;93008.50;;;13.32;68.68
32243;BME280;18731;42.830;24.390;2022-11-18T16:50:44;93013.09;;;13.32;66.42
32243;BME280;18731;42.830;24.390;2022-11-18T16:53:09;93007.72;;;13.32;65.50
32243;BME280;18731;42.830;24.390;2022-11-18T16:55:35;92991.25;;;13.19;67.83
32243;BME280;18731;42.830;24.390;2022-11-18T16:58:00;93006.19;;;13.24;67.96
32243;BME280;18731;42.830;24.390;2022-11-18T17:00:26;93011.56;;;13.31;67.03
32243;BME280;18731;42.830;24.390;2022-11-18T17:02:51;93010.78;;;13.23;69.41
32243;BME280;18731;42.830;24.390;2022-11-18T17:05:17;93022.25;;;13.20;67.77
32243;BME280;18731;42.830;24.390;2022-11-18T17:07:43;93028.38;;;13.24;66.79
32243;BME280;18731;42.830;24.390;2022-11-18T17:10:09;93036.41;;;13.17;68.42
32243;BME280;18731;42.830;24.390;2022-11-18T17:12:45;93019.88;;;13.04;69.53
32243;BME280;18731;42.830;24.390;2022-11-18T17:15:12;93018.00;;;13.12;70.35
32243;BME280;18731;42.830;24.390;2022-11-18T17:17:38;93046.69;;;13.15;70.02
32243;BME280;18731;42.830;24.390;2022-11-18T17:20:04;93070.06;;;13.18;69.95
32243;BME280;18731;42.830;24.390;2022-11-18T17:22:29;93093.38;;;13.14;69.08
32243;BME280;18731;42.830;24.390;2022-11-18T17:24:55;93076.91;;;13.12;69.38
32243;BME280;18731;42.830;24.390;2022-11-18T17:27:21;93092.22;;;13.15;69.43
32243;BME280;18731;42.830;24.390;2022-11-18T17:29:46;93092.50;;;12.96;68.85
32243;BME280;18731;42.830;24.390;2022-11-18T17:32:15;93086.41;;;12.99;70.98
32243;BME280;18731;42.830;24.390;2022-11-18T17:34:41;93079.47;;;12.87;71.58
32243;BME280;18731;42.830;24.390;2022-11-18T17:37:07;93081.78;;;12.92;73.37
32243;BME280;18731;42.830;24.390;2022-11-18T17:39:33;93070.63;;;12.76;74.94
32243;BME280;18731;42.830;24.390;2022-11-18T17:41:58;93089.75;;;12.78;73.14
32243;BME280;18731;42.830;24.390;2022-11-18T17:44:39;93081.72;;;12.78;76.20
32243;BME280;18731;42.830;24.390;2022-11-18T17:47:05;93082.88;;;12.80;76.78
32243;BME280;18731;42.830;24.390;2022-11-18T17:49:31;93077.13;;;12.78;76.45
32243;BME280;18731;42.830;24.390;2022-11-18T17:51:57;93069.50;;;12.80;76.29
32243;BME280;18731;42.830;24.390;2022-11-18T17:54:22;93066.03;;;12.76;77.46
32243;BME280;18731;42.830;24.390;2022-11-18T17:56:49;93056.09;;;12.80;77.19
32243;BME280;18731;42.830;24.390;2022-11-18T17:59:18;93049.19;;;12.72;74.07
32243;BME280;18731;42.830;24.390;2022-11-18T18:01:44;93067.56;;;12.77;73.73
32243;BME280;18731;42.830;24.390;2022-11-18T18:04:11;93062.56;;;12.72;75.62
32243;BME280;18731;42.830;24.390;2022-11-18T18:06:39;93061.81;;;12.72;75.30
32243;BME280;18731;42.830;24.390;2022-11-18T18:09:05;93050.69;;;12.66;76.80